American Canyon, CA

5:22 PM PDT on September 30, 2014 (GMT -0700)
Federal Terrace, VSFCD | Change Station
CLOSE
Current Station
Personal Weather Station
Location: Vallejo, CA
Elevation: 34 ft
Nearby Weather Stations

Elev 34 ft 38.13 °N, 122.27 °W | Updated 10 minutes ago

Clear
Clear
76.3 °F
Feels Like 78 °F
N
5.0
Wind Variable Wind from SW
Gusts 8.0 mph

Today
High -- | Low -- °F
--% Chance of Precip.
Yesterday
High -- | Low -- °F
Precip. -- in
7:03 AM 6:53 PM
Waxing Crescent, 41% visible
Pressure 29.83 in
Visibility 10.0 miles
Clouds Clear
Heat Index 78 °F
Dew Point 59 °F
Humidity 55%
Rainfall 0.00 in
Snow Depth 0 in , 0 in , 0 in
UV 0.0 out of 12
Pollen 2.80 out of 12
Ozone Good
Flu Activity Not available.
METAR KAPC 302254Z AUTO 21009KT 10SM CLR 25/14 A2985 RMK AO2 SLP101 T02500139

More Conditions Fewer Conditions

Pressure 29.83 in
Visibility 10.0 miles
Clouds Clear
Heat Index 78 °F
Dew Point 59 °F
Humidity 55%
Rainfall 0.00 in
Snow Depth 0 in , 0 in , 0 in
UV 0.0 out of 12
Pollen 2.80 out of 12
Ozone Good
Flu Activity Not available.
METAR KAPC 302254Z AUTO 21009KT 10SM CLR 25/14 A2985 RMK AO2 SLP101 T02500139

More Conditions Fewer Conditions

10-Day Weather Forecast

Almanac

Astronomy

Sep. 30, 2014 Rise Set
Actual Time 7:03 AM PDT 6:53 PM PDT
Civil Twilight 6:37 AM PDT 7:19 PM PDT
Nautical Twilight 6:06 AM PDT 7:50 PM PDT
Astronomical Twilight 5:36 AM PDT 8:20 PM PDT
Moon 1:12 PM PDT (9/30) 11:32 PM PDT (9/30)
Length of Visible Light 12h 41m
Length of Day
11h 49m
Tomorrow will be 2m 26s shorter.
Waxing Crescent, 41% of the Moon is Illuminated
Today
Waxing Crescent
Oct 1
First Quarter
Oct 8
Full
Oct 15
Last Quarter
Oct 23
New

Today's Extremes

State Highs State Lows

Community

WunderPhotos

Upload Photos

1,757,792 photos uploaded!

Nearby

Air Quality

  Air Quality AQ Index Pollutant
Yesterday Good
OZONE
Current Good
OZONE
Tuesday Good
PM2.5
Wednesday Good
PM2.5
Thursday Moderate
PM2.5
Friday Moderate
PM2.5
Saturday Moderate
PM2.5
Sunday Moderate
PM2.5

Snow Depth

Station Depth Elevation
Tahoe City Cross 0 in 6750 ft
Leavitt Meadows 0 in 7200 ft
Squaw Valley 0 in 8200 ft
Spratt Creek 0 in 6200 ft
Leavitt Lake 0 in 9400 ft

Earthquake Activity

City Distance Mag. Time & Date
East Foothills, California 54 miles 2.6 3:34 PM PDT
2014-09-30
South Dos Palos, California 131 miles 2.7 3:08 PM PDT
2014-09-30
South Dos Palos, California 131 miles 2.5 9:18 PM PDT
2014-09-29
American Canyon, California 2 miles 2.5 12:17 AM PDT
2014-09-29
Minimum magnitude displayed is 2.5.

Coastal Water Temperatures

Place Temperature
San Francisco, CA 64.0 °F
Richmond, CA 68.0 °F
Port Chicago, CA 71.1 °F

Nearby Weather Stations